Tiempo atmosférico en la estación meteorológica de Castell, Platja d'Aro, Girona (14 m.)



Fecha
DESCASC
Temp. máxima en grados centígrados (hora)
DESCASC
Temp. mínima en grados centígrados (hora)
DESCASC
Temp. media en grados centígrados
DESCASC
Racha de viento máxima en m/sg (hora)
DESCASC
Velocidad máxima media en intervalos de 10 minutos(hora)
DESCASC
Precipitaciones diarias en mm
DESCASC
Precipitaciones de 00:00 a 06:00 en mm
DESCASC
Precipitaciones de 06:00 a 12:00 en mm
DESCASC
Precipitaciones de 12:00 a 18:00 en mm
DESCASC
Precipitaciones de 18:00 a 24:00 en mm
DESCASC
17-02-2019 15.2 (12:20) 0 (04:30) 7.6 7.22 (13:10) 4.17 (15:10) 0 0 0 0 0
16-02-2019 14.1 (15:40) -0.3 (07:50) 6.9 5 (04:20) 2.78 (04:20) 0 0 0 0 0
15-02-2019 14.4 (14:30) 0.5 (05:30) 7.4 9.44 (16:30) 6.11 (13:00) 0 0 0 0 0
14-02-2019 14.1 (12:30) 0.2 (00:00) 7.2 9.17 (13:50) 5.56 (14:40) 0 0 0 0 0
13-02-2019 13.7 (13:40) 0.6 (00:00) 7.1 5.56 (07:20) 2.78 (06:00) 0 0 0 0 0
12-02-2019 15.5 (16:00) 2.1 (00:00) 8.8 8.33 (01:40) 4.72 (14:40) 0 0 0 0 0
11-02-2019 15.7 (13:40) 10 (00:00) 12.8 11.39 (08:50) 5.28 (08:50) 0 0 0 0 0
10-02-2019 18.7 (13:30) 9.8 (00:00) 14.3 12.22 (11:10) 5 (13:50) 0 0 0 0 0
09-02-2019 16.1 (13:50) 4.3 (00:00) 10.2 7.78 (23:50) 3.33 (11:00) 0 0 0 0 0
08-02-2019 16 (15:30) 5.9 (00:00) 11 11.94 (16:10) 5.28 (17:40) 0 0 0 0 0
07-02-2019 14.2 (14:10) 4.6 (00:00) 9.4 5.83 (09:00) 3.06 (08:00) 0 0 0 0 0
06-02-2019 15.3 (11:40) 3 (00:00) 9.2 5 (02:20) 2.78 (07:10) 0 0 0 0 0
05-02-2019 15.4 (15:30) 4.3 (00:00) 9.8 5.28 (10:30) 3.33 (11:20) 0 0 0 0 0
04-02-2019 14 (12:50) -2.3 (-00:0) 5.9 7.22 (00:30) 4.17 (14:00) 0 0 0 0 0
03-02-2019 13.2 (14:10) 5.8 (00:00) 9.5 15.56 (16:50) 6.94 (16:10) 0 0 0 0 0
02-02-2019 11.6 (00:00) 2.8 (00:00) 7.2 10.83 (23:40) 5 (22:50) 0 0 0 0 0
01-02-2019 16.1 (14:30) 9.5 (00:00) 12.8 11.94 (14:40) 6.11 (15:10) 0 0 0 0 0
31-01-2019 13.7 (14:20) 2.9 (00:00) 8.3 9.17 (02:20) 4.17 (02:00) 0 0 0 0 0
30-01-2019 11.5 (14:10) -0.1 (00:00) 5.7 6.67 (14:00) 3.61 (13:50) 0 0 0 0 0
29-01-2019 9.5 (15:00) 1.2 (00:00) 5.4 10.28 (01:00) 5.83 (01:00) 0.2 0 0 0.2 0
28-01-2019 12.1 (14:10) 0.1 (00:00) 6.1 13.61 (22:50) 6.11 (15:20) 0.2 0 0 0 0.2
27-01-2019 14 (15:40) 3.5 (00:00) 8.8 9.17 (20:50) 3.89 (19:20) 1.4 0 0 1 0.4
26-01-2019 15 (12:40) 2.7 (00:00) 8.9 6.39 (05:50) 3.89 (10:50) 0 0 0 0 0
25-01-2019 14.9 (13:10) 4 (00:00) 9.4 18.33 (03:00) 7.22 (03:00) 0 0 0 0 0
24-01-2019 12.1 (15:40) 4.1 (00:00) 8.1 16.11 (12:30) 8.06 (05:30) 0 0 0 0 0
23-01-2019 10.5 (14:00) 1.7 (00:00) 6.1 15.28 (19:00) 7.22 (19:00) 0 0 0 0 0
22-01-2019 11.9 (14:30) -0.3 (00:00) 5.8 10.83 (00:40) 5 (01:00) 0 0 0 0 0
21-01-2019 11.7 (15:20) 6 (00:00) 8.8 11.39 (23:20) 5.28 (21:20) 0 0 0 0 0
20-01-2019 9.4 (19:40) 2.7 (00:00) 6 10.83 (19:20) 4.72 (17:30) 6.2 0.4 5.8 0 0
19-01-2019 12.8 (12:40) 2 (00:00) 7.4 6.11 (13:20) 3.33 (13:40) 1.2 1.2 0 0 0

Gráficas

Temp. máximas Temp. mínimas Temp. medias Precipitaciones Rachas de viento máximas Velocidades máximas media en intervalos de 10 minutos

Datos horarios

Fecha y hora oficial Temperatura (ºC) Velocidad del viento (km/h) Dirección del viento Racha (km/h) Dirección de racha Precipitación (mm) Presión (hPa) Tendencia (hPa) Humedad (%)
2019-02-17 23:00:00 8.3 6 Oeste 10 Oeste 0 -- -- 91
2019-02-17 22:00:00 9.5 4 Sur 10 Sudoeste 0 -- -- 88
2019-02-17 21:00:00 10.2 3 Sur 9 Sudeste 0 -- -- 84
2019-02-17 20:00:00 11.7 3 Sudeste 14 Sudoeste 0 -- -- 79
2019-02-17 19:00:00 12.1 5 Sudeste 15 Sur 0 -- -- 80
2019-02-17 18:00:00 12.8 8 Sudeste 20 Sur 0 -- -- 80
2019-02-17 17:00:00 13.7 12 Sudeste 25 Sudeste 0 -- -- 78
2019-02-17 16:00:00 14 9 Sur 26 Sudeste 0 -- -- 76
2019-02-17 15:00:00 14.4 12 Sur 25 Sur 0 -- -- 75
2019-02-17 14:00:00 14.6 10 Sur 26 Sudeste 0 -- -- 76
2019-02-17 13:00:00 15.1 9 Sur 24 Sudeste 0 -- -- 74
2019-02-17 12:00:00 14.8 13 Sur 25 Sur 0 -- -- 73
2019-02-17 11:00:00 14 10 Sur 22 Sur 0 -- -- 74
2019-02-17 10:00:00 7.7 4 Oeste 10 Oeste 0 -- -- 95
2019-02-17 09:00:00 3.4 5 Oeste 14 Sudoeste 0 -- -- 99
2019-02-17 08:00:00 1.4 8 Oeste 12 Oeste 0 -- -- 96
2019-02-17 07:00:00 1.3 6 Oeste 14 Oeste 0 -- -- 95
2019-02-17 06:00:00 0.8 8 Oeste 15 Oeste 0 -- -- 94
2019-02-17 05:00:00 0 9 Oeste 15 Sudoeste 0 -- -- 92
2019-02-17 04:00:00 0.4 9 Oeste 15 Oeste 0 -- -- 92
2019-02-17 03:00:00 0.3 8 Oeste 15 Oeste 0 -- -- 92
2019-02-17 02:00:00 1 9 Oeste 15 Oeste 0 -- -- 91
2019-02-17 01:00:00 1.4 8 Oeste 14 Oeste 0 -- -- 91
2019-02-17 00:00:00 1.5 8 Oeste 15 Sudoeste 0 -- -- 91
2019-02-16 23:00:00 2.2 7 Oeste 12 Oeste 0 -- -- 91
2019-02-16 22:00:00 3.4 7 Oeste 10 Oeste 0 -- -- 91
2019-02-16 21:00:00 5.1 6 Oeste 10 Oeste 0 -- -- 88
2019-02-16 20:00:00 7.9 2 Noroeste 6 Sur 0 -- -- 91
2019-02-16 19:00:00 10 2 Este 9 Este 0 -- -- 88
2019-02-16 18:00:00 11.8 5 Este 12 Sudeste 0 -- -- 86
2019-02-16 17:00:00 12.8 5 Sudeste 13 Sudeste 0 -- -- 78
2019-02-16 16:00:00 13.9 6 Sudeste 13 Sur 0 -- -- 71
2019-02-16 15:00:00 13.5 7 Sudeste 17 Sudeste 0 -- -- 78
2019-02-16 14:00:00 13.3 9 Sudeste 18 Este 0 -- -- 76
2019-02-16 13:00:00 13.3 9 Este 16 Este 0 -- -- 75
2019-02-16 12:00:00 13.9 4 Este 9 Este 0 -- -- 68
2019-02-16 11:00:00 10.8 6 Sudoeste 18 Oeste 0 -- -- 69
2019-02-16 10:00:00 5.9 8 Oeste 16 Oeste 0 -- -- 87
2019-02-16 09:00:00 1.2 9 Oeste 17 Oeste 0 -- -- 97
2019-02-16 08:00:00 -0.1 8 Oeste 16 Oeste 0 -- -- 97
2019-02-16 07:00:00 -0.1 9 Oeste 17 Oeste 0 -- -- 96
2019-02-16 06:00:00 0.1 9 Oeste 18 Oeste 0 -- -- 94
2019-02-16 05:00:00 0.5 9 Oeste 18 Oeste 0 -- -- 95
2019-02-16 04:00:00 1.2 9 Oeste 15 Oeste 0 -- -- 96
2019-02-16 03:00:00 1.8 8 Oeste 13 Oeste 0 -- -- 97
2019-02-16 02:00:00 1.9 8 Oeste 18 Sudoeste 0 -- -- 95
2019-02-16 01:00:00 2.9 9 Oeste 16 Sudoeste 0 -- -- 94
2019-02-16 00:00:00 3.4 8 Oeste 15 Sudoeste 0 -- -- 93
2019-02-15 23:00:00 3.9 8 Oeste 12 Oeste 0 -- -- 94
2019-02-15 22:00:00 4.4 7 Oeste 11 Oeste 0 -- -- 93
2019-02-15 21:00:00 6.1 2 Noroeste 10 Oeste 0 -- -- 89
2019-02-15 20:00:00 8.7 4 Oeste 14 Oeste 0 -- -- 83
2019-02-15 19:00:00 10.6 4 Noroeste 14 Noroeste 0 -- -- 86
2019-02-15 18:00:00 11.5 7 Sudoeste 31 Sur 0 -- -- 82
2019-02-15 17:00:00 12.3 15 Sur 34 Sur 0 -- -- 78
2019-02-15 16:00:00 13.4 18 Sur 32 Sur 0 -- -- 74
2019-02-15 15:00:00 14 12 Sur 29 Sudoeste 0 -- -- 71
2019-02-15 14:00:00 13.8 17 Sur 32 Sur 0 -- -- 70
2019-02-15 13:00:00 13.6 22 Sur 34 Sur 0 -- -- 72
2019-02-15 12:00:00 13.7 15 Sur 29 Sur 0 -- -- 68
2019-02-15 11:00:00 11.6 0 Calma 10 Oeste 0 -- -- 72
2019-02-15 10:00:00 6.2 6 Oeste 14 Oeste 0 -- -- 92
2019-02-15 09:00:00 1.7 7 Oeste 18 Oeste 0 -- -- 98
2019-02-15 08:00:00 0.7 8 Oeste 19 Oeste 0 -- -- 98
2019-02-15 07:00:00 0.8 8 Oeste 14 Oeste 0 -- -- 98
2019-02-15 06:00:00 0.5 8 Oeste 13 Oeste 0 -- -- 97
2019-02-15 05:00:00 1 7 Oeste 13 Oeste 0 -- -- 96
2019-02-15 04:00:00 1.3 7 Oeste 13 Oeste 0 -- -- 96
2019-02-15 03:00:00 1.6 8 Oeste 12 Oeste 0 -- -- 96
2019-02-15 02:00:00 2.2 7 Oeste 13 Oeste 0 -- -- 96
2019-02-15 01:00:00 2.6 6 Oeste 11 Oeste 0 -- -- 94
2019-02-15 00:00:00 3.3 5 Oeste 10 Oeste 0 -- -- 93
2019-02-14 23:00:00 4.1 6 Oeste 13 Oeste 0 -- -- 92
2019-02-14 22:00:00 6.6 6 Oeste 12 Sudoeste 0 -- -- 82
2019-02-14 21:00:00 9.5 4 Sudoeste 14 Oeste 0 -- -- 85
2019-02-14 20:00:00 9.8 4 Oeste 10 Oeste 0 -- -- 82
2019-02-14 19:00:00 10.2 4 Oeste 17 Sudoeste 0 -- -- 76
2019-02-14 18:00:00 11.4 8 Oeste 28 Sur 0 -- -- 75
2019-02-14 17:00:00 12.2 15 Sur 30 Sudoeste 0 -- -- 75
2019-02-14 16:00:00 13.5 17 Sur 28 Sur 0 -- -- 69
2019-02-14 15:00:00 13.8 18 Sur 31 Sur 0 -- -- 68
2019-02-14 14:00:00 13.8 14 Sur 33 Sudoeste 0 -- -- 68
2019-02-14 13:00:00 13.8 20 Sur 31 Sur 0 -- -- 66
2019-02-14 12:00:00 13.6 17 Sur 28 Sur 0 -- -- 66
2019-02-14 11:00:00 12.2 11 Sur 23 Sudoeste 0 -- -- 74
2019-02-14 10:00:00 6.2 5 Oeste 13 Oeste 0 -- -- 95
2019-02-14 09:00:00 1.6 8 Oeste 15 Oeste 0 -- -- 99
2019-02-14 08:00:00 0.2 8 Oeste 17 Oeste 0 -- -- 98
2019-02-14 07:00:00 0.6 9 Oeste 17 Oeste 0 -- -- 97
2019-02-14 06:00:00 1.2 8 Oeste 15 Oeste 0 -- -- 97
2019-02-14 05:00:00 2 8 Oeste 13 Oeste 0 -- -- 97
2019-02-14 04:00:00 2.5 9 Oeste 16 Oeste 0 -- -- 97
2019-02-14 03:00:00 3.1 7 Oeste 15 Oeste 0 -- -- 97
2019-02-14 02:00:00 3.1 7 Oeste 15 Oeste 0 -- -- 96
2019-02-14 01:00:00 3.7 8 Oeste 14 Oeste 0 -- -- 96
2019-02-14 00:00:00 3.9 7 Oeste 13 Oeste 0 -- -- 96
2019-02-13 23:00:00 4 7 Oeste 10 Oeste 0 -- -- 93
2019-02-13 22:00:00 4.9 6 Oeste 12 Sudoeste 0 -- -- 91
2019-02-13 21:00:00 6.1 7 Oeste 10 Oeste 0 -- -- 90
2019-02-13 20:00:00 7.1 3 Oeste 8 Oeste 0 -- -- 86
2019-02-13 19:00:00 8.9 3 Sur 6 Este 0 -- -- 82
2019-02-13 18:00:00 11.5 3 Sudeste 11 Sudeste 0 -- -- 73
2019-02-13 17:00:00 12 4 Sudeste 15 Sudeste 0 -- -- 67
2019-02-13 16:00:00 13 7 Sur 17 Sudeste 0 -- -- 61
2019-02-13 15:00:00 13.2 8 Este 15 Este 0 -- -- 60
2019-02-13 14:00:00 13.4 9 Este 17 Este 0 -- -- 52
2019-02-13 13:00:00 13.3 7 Este 17 Este 0 -- -- 46
2019-02-13 12:00:00 13.1 9 Este 15 Este 0 -- -- 47
2019-02-13 11:00:00 11.7 3 Sur 12 Oeste 0 -- -- 57
2019-02-13 10:00:00 6.5 7 Oeste 18 Oeste 0 -- -- 74
2019-02-13 09:00:00 1.8 9 Oeste 17 Oeste 0 -- -- 87
2019-02-13 08:00:00 0.6 9 Oeste 20 Oeste 0 -- -- 87
2019-02-13 07:00:00 0.9 9 Oeste 18 Sudoeste 0 -- -- 89
2019-02-13 06:00:00 1.2 10 Oeste 15 Oeste 0 -- -- 89
2019-02-13 05:00:00 1.4 8 Oeste 17 Oeste 0 -- -- 90
2019-02-13 04:00:00 1.7 8 Oeste 18 Oeste 0 -- -- 86
2019-02-13 03:00:00 2.3 10 Oeste 19 Oeste 0 -- -- 85
2019-02-13 02:00:00 2.7 9 Oeste 17 Oeste 0 -- -- 86
2019-02-13 01:00:00 3.3 9 Oeste 16 Oeste 0 -- -- 84
2019-02-13 00:00:00 3.9 9 Oeste 18 Oeste 0 -- -- 83
2019-02-12 23:00:00 4.8 8 Oeste 18 Oeste 0 -- -- 82
2019-02-12 22:00:00 5.2 8 Oeste 15 Oeste 0 -- -- 80
2019-02-12 21:00:00 6.1 7 Oeste 13 Sudoeste 0 -- -- 77
2019-02-12 20:00:00 7 6 Oeste 10 Oeste 0 -- -- 75
2019-02-12 19:00:00 9 3 Sudoeste 8 Oeste 0 -- -- 68
2019-02-12 18:00:00 11.5 3 Sudoeste 9 Sudoeste 0 -- -- 63
2019-02-12 17:00:00 14.8 6 Sudoeste 22 Sudoeste 0 -- -- 42
2019-02-12 16:00:00 15.5 11 Sur 27 Sur 0 -- -- 47
2019-02-12 15:00:00 14.9 14 Sur 27 Sur 0 -- -- 55
2019-02-12 14:00:00 14.6 16 Sur 24 Sur 0 -- -- 56
2019-02-12 13:00:00 15.4 9 Sur 19 Sudoeste 0 -- -- 54
2019-02-12 12:00:00 13.8 7 Oeste 18 Oeste 0 -- -- 51
2019-02-12 11:00:00 10.9 10 Oeste 23 Oeste 0 -- -- 65
2019-02-12 10:00:00 7.6 10 Oeste 23 Oeste 0 -- -- 76
2019-02-12 09:00:00 3.6 10 Oeste 17 Noroeste 0 -- -- 92
2019-02-12 08:00:00 2.3 7 Oeste 16 Oeste 0 -- -- 89
2019-02-12 07:00:00 2.9 8 Oeste 17 Oeste 0 -- -- 88
2019-02-12 06:00:00 3.3 7 Sudoeste 14 Sudoeste 0 -- -- 85
2019-02-12 05:00:00 4.9 8 Sudoeste 15 Sudoeste 0 -- -- 78
2019-02-12 04:00:00 7.3 5 Oeste 24 Noroeste 0 -- -- 69
2019-02-12 03:00:00 9.2 12 Norte 28 Norte 0 -- -- 63
2019-02-12 02:00:00 9.4 12 Norte 30 Norte 0 -- -- 61
2019-02-12 01:00:00 9.7 13 Norte 26 Norte 0 -- -- 58
2019-02-12 00:00:00 10.1 10 Norte 23 Norte 0 -- -- 56
2019-02-11 23:00:00 10.2 6 Norte 23 Noroeste 0 -- -- 54
2019-02-11 22:00:00 10.4 12 Norte 28 Noroeste 0 -- -- 53
2019-02-11 21:00:00 10.7 11 Norte 30 Norte 0 -- -- 54
2019-02-11 20:00:00 11.2 15 Norte 30 Norte 0 -- -- 56
2019-02-11 19:00:00 11.8 9 Norte 21 Noroeste 0 -- -- 53
2019-02-11 18:00:00 12.5 7 Este 22 Este 0 -- -- 51
2019-02-11 17:00:00 13.8 9 Sudeste 14 Sur 0 -- -- 66
2019-02-11 16:00:00 14.9 6 Sudoeste 18 Sur 0 -- -- 54
2019-02-11 15:00:00 14.1 10 Sur 17 Sur 0 -- -- 60
2019-02-11 14:00:00 15.1 11 Sudeste 19 Sudeste 0 -- -- 50
2019-02-11 13:00:00 14.5 7 Norte 14 Este 0 -- -- 50
2019-02-11 12:00:00 14.3 6 Nordeste 18 Norte 0 -- -- 53
2019-02-11 11:00:00 11.4 4 Norte 14 Noroeste 0 -- -- 56
2019-02-11 10:00:00 10.6 4 Oeste 27 Norte 0 -- -- 60
2019-02-11 09:00:00 10.4 15 Norte 41 Norte 0 -- -- 56
2019-02-11 08:00:00 10.5 14 Norte 35 Noroeste 0 -- -- 54
2019-02-11 07:00:00 11.1 13 Norte 33 Norte 0 -- -- 44
2019-02-11 06:00:00 11.6 15 Norte 33 Noroeste 0 -- -- 42
2019-02-11 05:00:00 10.6 6 Oeste 26 Noroeste 0 -- -- 58
2019-02-11 04:00:00 11.1 10 Noroeste 24 Norte 0 -- -- 50
2019-02-11 03:00:00 11.1 6 Oeste 19 Noroeste 0 -- -- 61
2019-02-11 02:00:00 11.3 8 Noroeste 22 Noroeste 0 -- -- 60
2019-02-11 01:00:00 11.5 4 Oeste 22 Norte 0 -- -- 60
2019-02-11 00:00:00 12 9 Nordeste 26 Norte 0 -- -- 56
2019-02-10 23:00:00 12.2 5 Sur 16 Noroeste 0 -- -- 56
2019-02-10 22:00:00 12 6 Oeste 13 Norte 0 -- -- 61
2019-02-10 21:00:00 10.5 0 Calma 5 Oeste 0 -- -- 94
2019-02-10 20:00:00 10.4 2 Oeste 9 Sudeste 0 -- -- 93
2019-02-10 19:00:00 11.4 0 Calma 11 Este 0 -- -- 89
2019-02-10 18:00:00 12.5 4 Sur 18 Este 0 -- -- 86
2019-02-10 17:00:00 13.3 8 Este 22 Este 0 -- -- 82
2019-02-10 16:00:00 14.4 10 Este 18 Este 0 -- -- 78
2019-02-10 15:00:00 14.5 11 Este 28 Nordeste 0 -- -- 68
2019-02-10 14:00:00 15.1 17 Este 32 Este 0 -- -- 69
2019-02-10 13:00:00 17.7 13 Oeste 33 Oeste 0 -- -- 43
2019-02-10 12:00:00 17 12 Oeste 44 Oeste 0 -- -- 47
2019-02-10 11:00:00 15.5 9 Oeste 30 Oeste 0 -- -- 48
2019-02-10 10:00:00 13.3 8 Oeste 23 Oeste 0 -- -- 53
2019-02-10 09:00:00 11.5 2 Oeste 14 Sur 0 -- -- 69
2019-02-10 08:00:00 11.2 4 Norte 14 Sudoeste 0 -- -- 72
2019-02-10 07:00:00 10.5 7 Sur 15 Sudoeste 0 -- -- 75
2019-02-10 06:00:00 10.8 3 Oeste 15 Sudoeste 0 -- -- 75
2019-02-10 05:00:00 11.1 3 Sudoeste 12 Sudoeste 0 -- -- 73
2019-02-10 04:00:00 11.7 5 Sudoeste 19 Sur 0 -- -- 75
2019-02-10 03:00:00 11.6 5 Nordeste 13 Nordeste 0 -- -- 82
2019-02-10 02:00:00 11.3 5 Sur 12 Sur 0 -- -- 86
2019-02-10 01:00:00 10.2 4 Sur 17 Sur 0 -- -- 86
2019-02-10 00:00:00 10.2 12 Sudoeste 28 Sur 0 -- -- 99
2019-02-09 23:00:00 5.8 6 Noroeste 12 Oeste 0 -- -- 95
2019-02-09 22:00:00 6.2 7 Oeste 11 Oeste 0 -- -- 93
2019-02-09 21:00:00 7.5 5 Oeste 9 Oeste 0 -- -- 91
2019-02-09 20:00:00 9.7 3 Oeste 12 Sur 0 -- -- 87
2019-02-09 19:00:00 11.6 3 Norte 14 Este 0 -- -- 86
2019-02-09 18:00:00 12.4 4 Sudeste 16 Sur 0 -- -- 83
2019-02-09 17:00:00 13.4 4 Sudeste 16 Sur 0 -- -- 78
2019-02-09 16:00:00 13.8 6 Sudeste 15 Sur 0 -- -- 75
2019-02-09 15:00:00 15.1 9 Sudeste 15 Sudeste 0 -- -- 67
2019-02-09 14:00:00 16.1 9 Sudeste 15 Sudeste 0 -- -- 63
2019-02-09 13:00:00 15.6 5 Oeste 15 Oeste 0 -- -- 61
2019-02-09 12:00:00 12.7 10 Oeste 20 Oeste 0 -- -- 78
2019-02-09 11:00:00 10.1 12 Oeste 19 Oeste 0 -- -- 86
2019-02-09 10:00:00 7.4 8 Oeste 15 Oeste 0 -- -- 97
2019-02-09 09:00:00 5 8 Oeste 18 Sudoeste 0 -- -- 98
2019-02-09 08:00:00 4.5 8 Oeste 16 Oeste 0 -- -- 98
2019-02-09 07:00:00 4.3 6 Oeste 15 Oeste 0 -- -- 98
2019-02-09 06:00:00 4.4 6 Oeste 14 Oeste 0 -- -- 98
2019-02-09 05:00:00 4.5 7 Oeste 14 Oeste 0 -- -- 97
2019-02-09 04:00:00 5 5 Oeste 13 Oeste 0 -- -- 97
2019-02-09 03:00:00 5 6 Oeste 12 Oeste 0 -- -- 98
2019-02-09 02:00:00 4.6 7 Oeste 12 Oeste 0 -- -- 97
2019-02-09 01:00:00 4.8 4 Oeste 8 Oeste 0 -- -- 95
2019-02-09 00:00:00 5.9 4 Noroeste 10 Oeste 0 -- -- 95
2019-02-08 23:00:00 6.3 5 Oeste 8 Oeste 0 -- -- 94
2019-02-08 22:00:00 7.7 4 Noroeste 10 Sur 0 -- -- 94
2019-02-08 21:00:00 9.2 2 Sudoeste 9 Sur 0 -- -- 91
2019-02-08 20:00:00 10.7 4 Sudoeste 10 Sudoeste 0 -- -- 87
2019-02-08 19:00:00 12.3 4 Norte 28 Sur 0 -- -- 85
2019-02-08 18:00:00 13 15 Sur 35 Sudoeste 0 -- -- 82
2019-02-08 17:00:00 13.9 15 Sudoeste 43 Sudoeste 0 -- -- 76
2019-02-08 16:00:00 15.5 19 Sudoeste 34 Sudoeste 0 -- -- 69
2019-02-08 15:00:00 15.4 15 Sur 30 Sur 0 -- -- 62
2019-02-08 14:00:00 14.5 14 Sur 29 Sur 0 -- -- 63
2019-02-08 13:00:00 14 12 Sur 21 Sur 0 -- -- 68
2019-02-08 12:00:00 13.5 5 Oeste 15 Oeste 0 -- -- 72
2019-02-08 11:00:00 11.5 8 Oeste 16 Oeste 0 -- -- 85
2019-02-08 10:00:00 9 6 Oeste 14 Oeste 0 -- -- 96
2019-02-08 09:00:00 7 5 Oeste 13 Oeste 0 -- -- 98
2019-02-08 08:00:00 6.5 6 Oeste 10 Oeste 0 -- -- 96
2019-02-08 07:00:00 7.7 3 Oeste 10 Este 0 -- -- 95
2019-02-08 06:00:00 8.3 0 Calma 3 Sur 0 -- -- 95
2019-02-08 05:00:00 8.6 0 Calma 6 Oeste 0 -- -- 92
2019-02-08 04:00:00 9 0 Calma 5 Noroeste 0 -- -- 93
2019-02-08 03:00:00 8.9 3 Oeste 5 Noroeste 0 -- -- 92
2019-02-08 02:00:00 8.8 4 Oeste 9 Oeste 0 -- -- 92
2019-02-08 01:00:00 8.5 6 Oeste 12 Oeste 0 -- -- 92
2019-02-08 00:00:00 8.3 3 Oeste 10 Oeste 0 -- -- 93
2019-02-07 23:00:00 8.8 4 Oeste 9 Oeste 0 -- -- 92
2019-02-07 22:00:00 9.4 4 Oeste 10 Oeste 0 -- -- 93
2019-02-07 21:00:00 9.1 6 Oeste 10 Oeste 0 -- -- 93
2019-02-07 20:00:00 10.2 3 Oeste 6 Oeste 0 -- -- 87
2019-02-07 19:00:00 11.8 2 Sudeste 5 Este 0 -- -- 86
2019-02-07 18:00:00 12.6 2 Sur 12 Sudeste 0 -- -- 83
2019-02-07 17:00:00 13 3 Sudeste 12 Sudeste 0 -- -- 81
2019-02-07 16:00:00 13.5 6 Sur 14 Sudeste 0 -- -- 79
2019-02-07 15:00:00 13.9 7 Sudeste 14 Sudeste 0 -- -- 76
2019-02-07 14:00:00 13.9 8 Sudeste 17 Sudeste 0 -- -- 77
2019-02-07 13:00:00 13.5 8 Sudeste 15 Sudeste 0 -- -- 79
2019-02-07 12:00:00 13.2 3 Este 14 Oeste 0 -- -- 81
2019-02-07 11:00:00 9.8 6 Oeste 14 Oeste 0 -- -- 96
2019-02-07 10:00:00 5.7 8 Oeste 20 Oeste 0 -- -- 100
2019-02-07 09:00:00 4.9 9 Oeste 21 Oeste 0 -- -- 100
2019-02-07 08:00:00 4.7 11 Oeste 18 Oeste 0 -- -- 100
2019-02-07 07:00:00 5.3 9 Oeste 18 Oeste 0 -- -- 100
2019-02-07 06:00:00 6 9 Oeste 18 Oeste 0 -- -- 100
2019-02-07 05:00:00 6.4 9 Oeste 16 Oeste 0 -- -- 99
2019-02-07 04:00:00 7 5 Oeste 15 Oeste 0 -- -- 99
2019-02-07 03:00:00 7.4 8 Oeste 16 Oeste 0 -- -- 99
2019-02-07 02:00:00 7 6 Oeste 12 Oeste 0 -- -- 99
2019-02-07 01:00:00 6.5 7 Oeste 12 Oeste 0 -- -- 98
2019-02-07 00:00:00 6.5 6 Oeste 11 Oeste 0 -- -- 96
2019-02-06 23:00:00 7.2 6 Oeste 9 Oeste 0 -- -- 94
2019-02-06 22:00:00 8.2 5 Oeste 9 Oeste 0 -- -- 92
2019-02-06 21:00:00 9.4 5 Oeste 10 Oeste 0 -- -- 93
2019-02-06 20:00:00 9.7 3 Oeste 7 Oeste 0 -- -- 91
2019-02-06 19:00:00 11 0 Calma 4 Sudeste 0 -- -- 88
2019-02-06 18:00:00 12.8 3 Este 10 Este 0 -- -- 86
2019-02-06 17:00:00 13.5 6 Sur 16 Sur 0 -- -- 84
2019-02-06 16:00:00 14 8 Sur 17 Sur 0 -- -- 79
2019-02-06 15:00:00 15.1 7 Sur 16 Sur 0 -- -- 75
2019-02-06 14:00:00 15 8 Sudeste 15 Sudeste 0 -- -- 67
2019-02-06 13:00:00 14.7 8 Sudeste 15 Sudeste 0 -- -- 69
2019-02-06 12:00:00 15.2 9 Sur 13 Sudeste 0 -- -- 59
2019-02-06 11:00:00 13.3 4 Sudoeste 13 Oeste 0 -- -- 64
2019-02-06 10:00:00 8.7 7 Oeste 14 Sudoeste 0 -- -- 78
2019-02-06 09:00:00 4.2 6 Oeste 16 Oeste 0 -- -- 91
2019-02-06 08:00:00 3 8 Oeste 17 Oeste 0 -- -- 91
2019-02-06 07:00:00 3.3 7 Oeste 15 Oeste 0 -- -- 91
2019-02-06 06:00:00 3.5 9 Oeste 15 Sudoeste 0 -- -- 91
2019-02-06 05:00:00 3.7 7 Oeste 14 Oeste 0 -- -- 90
2019-02-06 04:00:00 3.8 8 Oeste 15 Oeste 0 -- -- 91
2019-02-06 03:00:00 4 7 Oeste 18 Oeste 0 -- -- 91
2019-02-06 02:00:00 4.6 8 Oeste 14 Oeste 0 -- -- 90
2019-02-06 01:00:00 5.1 8 Oeste 17 Oeste 0 -- -- 88
2019-02-06 00:00:00 5.5 7 Sudoeste 14 Sudoeste 0 -- -- 90
2019-02-05 23:00:00 6.1 6 Oeste 13 Sudoeste 0 -- -- 88
2019-02-05 22:00:00 6.4 4 Oeste 13 Oeste 0 -- -- 88
2019-02-05 21:00:00 7 7 Oeste 13 Oeste 0 -- -- 86
2019-02-05 20:00:00 8 6 Oeste 10 Oeste 0 -- -- 83
2019-02-05 19:00:00 10 3 Oeste 5 Oeste 0 -- -- 75
2019-02-05 18:00:00 12.6 3 Sudeste 5 Sudeste 0 -- -- 69
2019-02-05 17:00:00 13.4 4 Sur 14 Sudeste 0 -- -- 60
2019-02-05 16:00:00 14.7 6 Este 13 Este 0 -- -- 55
2019-02-05 15:00:00 14.9 4 Este 12 Sudeste 0 -- -- 52
2019-02-05 14:00:00 13.9 4 Sur 14 Oeste 0 -- -- 52
2019-02-05 13:00:00 13.2 9 Oeste 18 Sudoeste 0 -- -- 42
2019-02-05 12:00:00 11.8 9 Oeste 19 Noroeste 0 -- -- 48
2019-02-05 11:00:00 8.5 11 Oeste 19 Oeste 0 -- -- 63
2019-02-05 10:00:00 6.6 6 Oeste 14 Oeste 0 -- -- 69
2019-02-05 09:00:00 5.3 6 Oeste 18 Oeste 0 -- -- 72
2019-02-05 08:00:00 5.3 9 Oeste 18 Oeste 0 -- -- 70
2019-02-05 07:00:00 5.6 8 Noroeste 17 Oeste 0 -- -- 66
2019-02-05 06:00:00 5.2 6 Oeste 12 Oeste 0 -- -- 70
2019-02-05 05:00:00 5.4 6 Sudoeste 11 Sudoeste 0 -- -- 66
2019-02-05 04:00:00 5.5 6 Oeste 12 Oeste 0 -- -- 66
2019-02-05 03:00:00 5.6 5 Sudoeste 12 Oeste 0 -- -- 69
2019-02-05 02:00:00 5.5 5 Oeste 10 Oeste 0 -- -- 69
2019-02-05 01:00:00 4.8 6 Oeste 9 Oeste 0 -- -- 70
2019-02-05 00:00:00 4.3 7 Oeste 13 Oeste 0 -- -- 71
2019-02-04 23:00:00 3.6 7 Oeste 13 Oeste 0 -- -- 72
2019-02-04 22:00:00 3.9 6 Oeste 11 Oeste 0 -- -- 70
2019-02-04 21:00:00 4.6 6 Oeste 11 Oeste 0 -- -- 69
2019-02-04 20:00:00 5.4 5 Oeste 8 Oeste 0 -- -- 67
2019-02-04 19:00:00 6.3 4 Oeste 8 Oeste 0 -- -- 64
2019-02-04 18:00:00 8.6 0 Calma 13 Sur 0 -- -- 55
2019-02-04 17:00:00 10.9 8 Sur 16 Sur 0 -- -- 45
2019-02-04 16:00:00 12.4 9 Sur 19 Sudoeste 0 -- -- 40
2019-02-04 15:00:00 12.5 13 Sur 24 Sur 0 -- -- 45
2019-02-04 14:00:00 12.5 15 Sur 24 Sur 0 -- -- 40
2019-02-04 13:00:00 13.6 12 Sur 19 Sur 0 -- -- 38
2019-02-04 12:00:00 11.9 6 Oeste 15 Oeste 0 -- -- 26
2019-02-04 11:00:00 8 10 Oeste 23 Oeste 0 -- -- 36
2019-02-04 10:00:00 2.9 9 Oeste 17 Oeste 0 -- -- 48
2019-02-04 09:00:00 -1.5 9 Oeste 17 Sudoeste 0 -- -- 61
2019-02-04 08:00:00 -2.1 10 Oeste 18 Oeste 0 -- -- 61
2019-02-04 07:00:00 -2.2 9 Oeste 15 Oeste 0 -- -- 64
2019-02-04 06:00:00 -1.2 9 Oeste 16 Oeste 0 -- -- 59
2019-02-04 05:00:00 -0.2 8 Oeste 16 Oeste 0 -- -- 55
2019-02-04 04:00:00 2.8 5 Oeste 22 Oeste 0 -- -- 44
2019-02-04 03:00:00 6.9 8 Oeste 23 Norte 0 -- -- 31
2019-02-04 02:00:00 7.7 9 Norte 24 Noroeste 0 -- -- 26
2019-02-04 01:00:00 5.7 5 Noroeste 26 Norte 0 -- -- 40
2019-02-04 00:00:00 7.1 5 Norte 30 Noroeste 0 -- -- 35
2019-02-03 23:00:00 7.5 8 Oeste 41 Norte 0 -- -- 38
2019-02-03 22:00:00 7.9 11 Norte 24 Norte 0 -- -- 27
2019-02-03 21:00:00 8.1 4 Noroeste 26 Norte 0 -- -- 33
2019-02-03 20:00:00 8.8 7 Norte 30 Noroeste 0 -- -- 30
2019-02-03 19:00:00 10 14 Noroeste 47 Oeste 0 -- -- 28
2019-02-03 18:00:00 10.4 13 Noroeste 37 Norte 0 -- -- 30
2019-02-03 17:00:00 11.7 22 Noroeste 56 Noroeste 0 -- -- 28
2019-02-03 16:00:00 12.1 20 Noroeste 52 Norte 0 -- -- 26
2019-02-03 15:00:00 12.6 18 Norte 39 Norte 0 -- -- 26
2019-02-03 14:00:00 13.1 13 Norte 32 Noroeste 0 -- -- 23
2019-02-03 13:00:00 11.6 16 Oeste 43 Noroeste 0 -- -- 27
2019-02-03 12:00:00 10.9 18 Oeste 37 Noroeste 0 -- -- 30
2019-02-03 11:00:00 9.1 22 Noroeste 46 Noroeste 0 -- -- 29
2019-02-03 10:00:00 7.4 14 Norte 36 Norte 0 -- -- 32
2019-02-03 09:00:00 6.1 16 Norte 44 Norte 0 -- -- 37
2019-02-03 08:00:00 6.3 17 Norte 38 Norte 0 -- -- 34
2019-02-03 07:00:00 5.9 17 Norte 43 Nordeste 0 -- -- 39
2019-02-03 06:00:00 6 19 Norte 42 Noroeste 0 -- -- 42
2019-02-03 05:00:00 6.2 17 Norte 39 Norte 0 -- -- 42
2019-02-03 04:00:00 6.3 15 Norte 37 Nordeste 0 -- -- 45
2019-02-03 03:00:00 6.7 14 Norte 35 Norte 0 -- -- 41
2019-02-03 02:00:00 7.5 14 Norte 32 Norte 0 -- -- 39
2019-02-03 01:00:00 7.5 16 Norte 39 Norte 0 -- -- 41
2019-02-03 00:00:00 7.6 16 Norte 39 Norte 0 -- -- 46
2019-02-02 23:00:00 7.5 15 Norte 36 Norte 0 -- -- 50
2019-02-02 22:00:00 8.1 13 Norte 30 Norte 0 -- -- 49
2019-02-02 21:00:00 8.1 10 Norte 27 Norte 0 -- -- 52
2019-02-02 20:00:00 6.8 4 Norte 11 Norte 0 -- -- 72
2019-02-02 19:00:00 7.8 3 Sudoeste 8 Oeste 0 -- -- 83
2019-02-02 18:00:00 9.7 2 Oeste 6 Sur 0 -- -- 78
2019-02-02 17:00:00 10.4 0 Calma 6 Sudeste 0 -- -- 75
2019-02-02 16:00:00 10.6 2 Nordeste 11 Nordeste 0 -- -- 72
2019-02-02 15:00:00 10.7 5 Este 13 Este 0 -- -- 67
2019-02-02 14:00:00 10.6 4 Sur 15 Sudoeste 0 -- -- 68
2019-02-02 13:00:00 11.3 6 Sudeste 12 Oeste 0 -- -- 61
2019-02-02 12:00:00 11.2 8 Oeste 25 Noroeste 0 -- -- 63
2019-02-02 11:00:00 8.6 10 Oeste 19 Noroeste 0 -- -- 77
2019-02-02 10:00:00 5.5 4 Nordeste 10 Sudoeste 0 -- -- 86
2019-02-02 09:00:00 3.2 6 Oeste 14 Oeste 0 -- -- 90
2019-02-02 08:00:00 3.1 6 Oeste 13 Oeste 0 -- -- 89
2019-02-02 07:00:00 2.8 6 Oeste 13 Noroeste 0 -- -- 89
2019-02-02 06:00:00 3.6 4 Oeste 12 Oeste 0 -- -- 86
2019-02-02 05:00:00 4.3 6 Oeste 12 Oeste 0 -- -- 84
2019-02-02 04:00:00 6 4 Oeste 14 Oeste 0 -- -- 78
2019-02-02 03:00:00 7.5 9 Oeste 18 Oeste 0 -- -- 74
2019-02-02 02:00:00 8.5 12 Oeste 23 Oeste 0 -- -- 71
2019-02-02 01:00:00 9.5 14 Noroeste 27 Oeste 0 -- -- 65
2019-02-02 00:00:00 11.6 9 Noroeste 31 Sudoeste 0 -- -- 59
2019-02-01 23:00:00 11.4 4 Sudoeste 18 Sudoeste 0 -- -- 57
2019-02-01 22:00:00 12.5 11 Sudoeste 26 Sudoeste 0 -- -- 51
2019-02-01 21:00:00 12.4 8 Sudoeste 26 Oeste 0 -- -- 51
2019-02-01 20:00:00 12.4 8 Sudoeste 25 Sudoeste 0 -- -- 57
2019-02-01 19:00:00 13 11 Sudoeste 36 Sudoeste 0 -- -- 62
2019-02-01 18:00:00 13.9 17 Sudoeste 31 Sudoeste 0 -- -- 50
2019-02-01 17:00:00 14.3 12 Sudoeste 41 Sur 0 -- -- 59
2019-02-01 16:00:00 15.3 21 Sudoeste 43 Sudoeste 0 -- -- 65
2019-02-01 15:00:00 15.7 19 Sudoeste 43 Sudoeste 0 -- -- 65
2019-02-01 14:00:00 15.7 18 Sudoeste 37 Sudoeste 0 -- -- 62
2019-02-01 13:00:00 14.8 15 Sur 28 Sudoeste 0 -- -- 67
2019-02-01 12:00:00 14.7 12 Oeste 28 Oeste 0 -- -- 70
2019-02-01 11:00:00 15.6 12 Sudoeste 32 Sur 0 -- -- 76
2019-02-01 10:00:00 14.5 13 Sudoeste 40 Sudoeste 0 -- -- 81
2019-02-01 09:00:00 13.6 12 Sudoeste 25 Oeste 0 -- -- 81
2019-02-01 08:00:00 10.2 2 Sur 5 Sur 0 -- -- 93
2019-02-01 07:00:00 10.6 2 Nordeste 8 Nordeste 0 -- -- 90
2019-02-01 06:00:00 9.6 3 Oeste 9 Oeste 0 -- -- 91
2019-02-01 05:00:00 10 2 Noroeste 5 Oeste 0 -- -- 90
2019-02-01 04:00:00 10.8 2 Sudeste 8 Noroeste 0 -- -- 86
2019-02-01 03:00:00 12.3 5 Nordeste 10 Noroeste 0 -- -- 81
2019-02-01 02:00:00 12.8 4 Noroeste 15 Sur 0 -- -- 75
2019-02-01 01:00:00 14 8 Sudoeste 26 Sudoeste 0 -- -- 69
2019-02-01 00:00:00 13.7 9 Sudoeste 26 Sudoeste 0 -- -- 70
2019-01-31 23:00:00 10.7 10 Sudoeste 23 Sur 0 -- -- 86
2019-01-31 22:00:00 8.2 6 Sudeste 10 Sudeste 0 -- -- 88
2019-01-31 21:00:00 8.2 5 Sudoeste 13 Oeste 0 -- -- 87
2019-01-31 20:00:00 8.6 3 Oeste 12 Oeste 0 -- -- 85
2019-01-31 19:00:00 9.3 4 Oeste 8 Noroeste 0 -- -- 80
2019-01-31 18:00:00 10.7 4 Este 17 Este 0 -- -- 75
2019-01-31 17:00:00 11.5 8 Este 15 Nordeste 0 -- -- 70
2019-01-31 16:00:00 12.3 8 Este 15 Este 0 -- -- 67
2019-01-31 15:00:00 13 8 Este 17 Este 0 -- -- 62
2019-01-31 14:00:00 13.6 3 Sudoeste 11 Sudoeste 0 -- -- 58
2019-01-31 13:00:00 11.8 4 Oeste 9 Oeste 0 -- -- 64
2019-01-31 12:00:00 11.7 6 Noroeste 18 Noroeste 0 -- -- 62
2019-01-31 11:00:00 11.7 9 Noroeste 16 Oeste 0 -- -- 60
2019-01-31 10:00:00 9.8 6 Sudoeste 15 Oeste 0 -- -- 64
2019-01-31 09:00:00 5.7 7 Oeste 12 Oeste 0 -- -- 77
2019-01-31 08:00:00 5.3 5 Oeste 9 Oeste 0 -- -- 74
2019-01-31 07:00:00 6.4 5 Sudoeste 9 Oeste 0 -- -- 70
2019-01-31 06:00:00 8.9 3 Sudoeste 18 Oeste 0 -- -- 60
2019-01-31 05:00:00 10.1 5 Oeste 29 Oeste 0 -- -- 53
2019-01-31 04:00:00 10.3 12 Oeste 31 Oeste 0 -- -- 49
2019-01-31 03:00:00 10.3 12 Sudoeste 33 Sudoeste 0 -- -- 47
2019-01-31 02:00:00 9.2 15 Sudoeste 33 Sudoeste 0 -- -- 52
2019-01-31 01:00:00 4.3 4 Oeste 12 Noroeste 0 -- -- 81
2019-01-31 00:00:00 3.1 4 Oeste 12 Noroeste 0 -- -- 91
2019-01-30 23:00:00 3.5 6 Oeste 13 Oeste 0 -- -- 91
2019-01-30 22:00:00 3 7 Oeste 15 Oeste 0 -- -- 92
2019-01-30 21:00:00 3.5 7 Oeste 12 Oeste 0 -- -- 90
2019-01-30 20:00:00 4.2 6 Oeste 11 Oeste 0 -- -- 88
2019-01-30 19:00:00 5.8 4 Oeste 8 Oeste 0 -- -- 81
2019-01-30 18:00:00 8.2 2 Este 11 Este 0 -- -- 74
2019-01-30 17:00:00 10.3 5 Este 12 Sudeste 0 -- -- 62
2019-01-30 16:00:00 11.5 6 Sur 19 Sudeste 0 -- -- 53
2019-01-30 15:00:00 11.2 10 Sur 22 Sur 0 -- -- 60
2019-01-30 14:00:00 11.3 12 Sur 24 Sudeste 0 -- -- 61
2019-01-30 13:00:00 11 12 Sur 20 Sudeste 0 -- -- 56
2019-01-30 12:00:00 10.6 6 Sudeste 13 Este 0 -- -- 53
2019-01-30 11:00:00 8.8 2 Sudeste 10 Oeste 0 -- -- 62
2019-01-30 10:00:00 3.6 6 Oeste 11 Oeste 0 -- -- 89
2019-01-30 09:00:00 0.4 5 Noroeste 13 Oeste 0 -- -- 96
2019-01-30 08:00:00 -0.1 6 Oeste 15 Oeste 0 -- -- 94
2019-01-30 07:00:00 0.5 6 Oeste 15 Noroeste 0 -- -- 95
2019-01-30 06:00:00 1 5 Oeste 12 Oeste 0 -- -- 95
2019-01-30 05:00:00 0.7 6 Oeste 18 Oeste 0 -- -- 95
2019-01-30 04:00:00 1 8 Oeste 14 Oeste 0 -- -- 95
2019-01-30 03:00:00 0.9 6 Oeste 17 Oeste 0 -- -- 95
2019-01-30 02:00:00 1.4 4 Oeste 15 Oeste 0 -- -- 94
2019-01-30 01:00:00 1.5 9 Oeste 17 Oeste 0 -- -- 95
2019-01-30 00:00:00 1.9 5 Oeste 10 Oeste 0 -- -- 93
2019-01-29 23:00:00 3.3 5 Noroeste 9 Oeste 0 -- -- 93
2019-01-29 22:00:00 4.4 5 Oeste 7 Oeste 0 -- -- 87
2019-01-29 21:00:00 7.1 0 Calma 22 Sudoeste 0 -- -- 80
2019-01-29 20:00:00 7.3 8 Sudoeste 19 Sur 0 -- -- 79
2019-01-29 19:00:00 7.9 2 Oeste 16 Sur 0 -- -- 83
2019-01-29 18:00:00 8.6 6 Sudoeste 25 Sur 0 -- -- 85
2019-01-29 17:00:00 8.8 10 Sudoeste 24 Sudoeste 0 -- -- 88
2019-01-29 16:00:00 8.8 6 Oeste 21 Sudoeste 0.2 -- -- 86
2019-01-29 15:00:00 9.5 7 Sudoeste 13 Oeste 0 -- -- 77
2019-01-29 14:00:00 8.8 3 Oeste 8 Sudoeste 0 -- -- 73
2019-01-29 13:00:00 8.2 4 Oeste 14 Oeste 0 -- -- 69
2019-01-29 12:00:00 7.8 7 Oeste 14 Oeste 0 -- -- 69
2019-01-29 11:00:00 6.1 9 Oeste 22 Oeste 0 -- -- 77
2019-01-29 10:00:00 3.5 7 Oeste 15 Oeste 0 -- -- 87
2019-01-29 09:00:00 2.1 8 Oeste 16 Oeste 0 -- -- 89
2019-01-29 08:00:00 1.7 9 Oeste 18 Sudoeste 0 -- -- 89
2019-01-29 07:00:00 1.2 8 Oeste 15 Sudoeste 0 -- -- 89
2019-01-29 06:00:00 2 9 Sudoeste 18 Oeste 0 -- -- 84
2019-01-29 05:00:00 5.1 4 Sudoeste 33 Norte 0 -- -- 72
2019-01-29 04:00:00 7.2 12 Norte 29 Norte 0 -- -- 64
2019-01-29 03:00:00 6.9 8 Noroeste 24 Norte 0 -- -- 67
2019-01-29 02:00:00 7.8 15 Norte 37 Norte 0 -- -- 61
2019-01-29 01:00:00 7.4 21 Noroeste 37 Noroeste 0 -- -- 66
2019-01-29 00:00:00 7.6 15 Noroeste 33 Norte 0 -- -- 65
2019-01-28 23:00:00 7.6 18 Noroeste 49 Noroeste 0 -- -- 68
2019-01-28 22:00:00 7.6 15 Norte 42 Norte 0.2 -- -- 70
2019-01-28 21:00:00 7.6 14 Noroeste 36 Oeste 0 -- -- 71
2019-01-28 20:00:00 7.2 8 Noroeste 22 Noroeste 0 -- -- 76
2019-01-28 19:00:00 8.7 13 Norte 37 Noroeste 0 -- -- 66
2019-01-28 18:00:00 9.4 21 Noroeste 37 Noroeste 0 -- -- 63
2019-01-28 17:00:00 9.9 12 Noroeste 34 Noroeste 0 -- -- 67
2019-01-28 16:00:00 9.9 20 Noroeste 41 Noroeste 0 -- -- 73
2019-01-28 15:00:00 10.5 15 Norte 39 Noroeste 0 -- -- 73
2019-01-28 14:00:00 11.9 6 Oeste 20 Oeste 0 -- -- 59
2019-01-28 13:00:00 11.5 5 Oeste 28 Oeste 0 -- -- 53
2019-01-28 12:00:00 8.6 16 Oeste 30 Oeste 0 -- -- 63
2019-01-28 11:00:00 4.9 12 Oeste 22 Oeste 0 -- -- 76
2019-01-28 10:00:00 3.7 9 Oeste 17 Sudoeste 0 -- -- 81
2019-01-28 09:00:00 1.2 9 Oeste 18 Oeste 0 -- -- 91
2019-01-28 08:00:00 0.6 8 Oeste 19 Oeste 0 -- -- 94
2019-01-28 07:00:00 0.2 8 Oeste 17 Sudoeste 0 -- -- 94
2019-01-28 06:00:00 0.7 9 Oeste 18 Oeste 0 -- -- 94
2019-01-28 05:00:00 1.3 10 Oeste 18 Oeste 0 -- -- 93
2019-01-28 04:00:00 1.8 9 Oeste 17 Sudoeste 0 -- -- 89
2019-01-28 03:00:00 2.8 6 Oeste 14 Sudoeste 0 -- -- 83
2019-01-28 02:00:00 3.9 6 Oeste 14 Sudoeste 0 -- -- 80
2019-01-28 01:00:00 5.3 5 Oeste 17 Noroeste 0 -- -- 75
2019-01-28 00:00:00 6.3 3 Sudoeste 23 Oeste 0 -- -- 72
2019-01-27 23:00:00 4.8 7 Oeste 24 Oeste 0 -- -- 77
2019-01-27 22:00:00 6 5 Sudoeste 29 Noroeste 0 -- -- 78
2019-01-27 21:00:00 7.6 7 Oeste 33 Norte 0 -- -- 65
2019-01-27 20:00:00 8.2 4 Noroeste 32 Nordeste 0.2 -- -- 73
2019-01-27 19:00:00 8.7 3 Norte 10 Sudoeste 0.2 -- -- 92
2019-01-27 18:00:00 10 3 Sudoeste 22 Noroeste 0.2 -- -- 84
2019-01-27 17:00:00 10.8 4 Norte 19 Nordeste 0.8 -- -- 88
2019-01-27 16:00:00 13.1 12 Nordeste 25 Nordeste 0 -- -- 71
2019-01-27 15:00:00 13.4 9 Norte 18 Nordeste 0 -- -- 72
2019-01-27 14:00:00 13.3 3 Este 11 Noroeste 0 -- -- 74
2019-01-27 13:00:00 11.9 5 Oeste 15 Oeste 0 -- -- 80
2019-01-27 12:00:00 11.4 6 Oeste 17 Oeste 0 -- -- 82
2019-01-27 11:00:00 9.6 9 Oeste 20 Oeste 0 -- -- 88
2019-01-27 10:00:00 6.3 6 Oeste 15 Sudoeste 0 -- -- 96
2019-01-27 09:00:00 5 7 Oeste 18 Oeste 0 -- -- 98
2019-01-27 08:00:00 4.1 6 Oeste 14 Oeste 0 -- -- 98
2019-01-27 07:00:00 3.6 8 Oeste 15 Oeste 0 -- -- 98
2019-01-27 06:00:00 3.7 8 Oeste 16 Sudoeste 0 -- -- 97
2019-01-27 05:00:00 3.6 9 Oeste 17 Oeste 0 -- -- 97
2019-01-27 04:00:00 4 8 Oeste 15 Sudoeste 0 -- -- 97
2019-01-27 03:00:00 4 7 Oeste 14 Sudoeste 0 -- -- 97
2019-01-27 02:00:00 4.4 9 Oeste 15 Oeste 0 -- -- 97
2019-01-27 01:00:00 4.7 8 Oeste 15 Sudoeste 0 -- -- 96
2019-01-27 00:00:00 5 6 Sudoeste 14 Sudoeste 0 -- -- 96
2019-01-26 23:00:00 5.7 6 Sudoeste 15 Sudoeste 0 -- -- 95
2019-01-26 22:00:00 6.1 6 Oeste 11 Noroeste 0 -- -- 96
2019-01-26 21:00:00 6.3 6 Oeste 10 Oeste 0 -- -- 94
2019-01-26 20:00:00 7.2 4 Oeste 8 Oeste 0 -- -- 90
2019-01-26 19:00:00 9.6 2 Sudoeste 10 Sudoeste 0 -- -- 82
2019-01-26 18:00:00 11.5 4 Sudoeste 22 Sur 0 -- -- 79
2019-01-26 17:00:00 12.8 7 Sur 19 Sur 0 -- -- 73
2019-01-26 16:00:00 13.9 10 Sur 20 Sur 0 -- -- 67
2019-01-26 15:00:00 14.1 10 Sur 23 Sudoeste 0 -- -- 67
2019-01-26 14:00:00 14.3 9 Sur 20 Sur 0 -- -- 63
2019-01-26 13:00:00 14.7 10 Sur 20 Sur 0 -- -- 59
2019-01-26 12:00:00 13.1 5 Oeste 17 Oeste 0 -- -- 63
2019-01-26 11:00:00 11.3 12 Oeste 21 Oeste 0 -- -- 65
2019-01-26 10:00:00 7.8 8 Oeste 19 Sudoeste 0 -- -- 77
2019-01-26 09:00:00 4.1 8 Oeste 20 Oeste 0 -- -- 82
2019-01-26 08:00:00 3.5 7 Oeste 22 Sudoeste 0 -- -- 80
2019-01-26 07:00:00 3.3 8 Oeste 23 Sudoeste 0 -- -- 80
2019-01-26 06:00:00 3.3 8 Oeste 23 Oeste 0 -- -- 79
2019-01-26 05:00:00 3.5 7 Oeste 22 Sudoeste 0 -- -- 81
2019-01-26 04:00:00 3 7 Oeste 20 Oeste 0 -- -- 80
2019-01-26 03:00:00 3.4 4 Oeste 13 Oeste 0 -- -- 81
2019-01-26 02:00:00 3.9 6 Oeste 13 Oeste 0 -- -- 78
2019-01-26 01:00:00 4.7 8 Oeste 14 Oeste 0 -- -- 76
2019-01-26 00:00:00 5 8 Oeste 15 Oeste 0 -- -- 76
2019-01-25 23:00:00 4.6 8 Oeste 22 Oeste 0 -- -- 82
2019-01-25 22:00:00 4.1 5 Oeste 15 Sudoeste 0 -- -- 84
2019-01-25 21:00:00 4.6 5 Oeste 12 Oeste 0 -- -- 80
2019-01-25 20:00:00 6.2 8 Oeste 13 Oeste 0 -- -- 74
2019-01-25 19:00:00 7.9 4 Oeste 9 Oeste 0 -- -- 71
2019-01-25 18:00:00 10.9 2 Oeste 13 Sudoeste 0 -- -- 62
2019-01-25 17:00:00 12.3 5 Sur 20 Sur 0 -- -- 53
2019-01-25 16:00:00 13.4 12 Sur 21 Sur 0 -- -- 45
2019-01-25 15:00:00 14 12 Sur 25 Sur 0 -- -- 39
2019-01-25 14:00:00 14.6 10 Sudoeste 22 Sur 0 -- -- 38
2019-01-25 13:00:00 14.6 12 Sudoeste 21 Sudoeste 0 -- -- 31
2019-01-25 12:00:00 12.6 9 Oeste 40 Norte 0 -- -- 50
2019-01-25 11:00:00 11.1 22 Norte 61 Norte 0 -- -- 51
2019-01-25 10:00:00 11.1 24 Norte 60 Nordeste 0 -- -- 47
2019-01-25 09:00:00 9 16 Norte 45 Norte 0 -- -- 46
2019-01-25 08:00:00 9.8 22 Norte 46 Noroeste 0 -- -- 38
2019-01-25 07:00:00 9.9 16 Norte 40 Noroeste 0 -- -- 35
2019-01-25 06:00:00 10.1 17 Noroeste 57 Noroeste 0 -- -- 32
2019-01-25 05:00:00 9.2 10 Noroeste 43 Noroeste 0 -- -- 27
2019-01-25 04:00:00 9.9 20 Noroeste 50 Noroeste 0 -- -- 23
2019-01-25 03:00:00 9.9 26 Noroeste 66 Noroeste 0 -- -- 17
2019-01-25 02:00:00 8.3 14 Noroeste 34 Noroeste 0 -- -- 19
2019-01-25 01:00:00 6.7 19 Noroeste 39 Norte 0 -- -- 30
2019-01-25 00:00:00 5.6 7 Noroeste 20 Oeste 0 -- -- 28
2019-01-24 23:00:00 7.3 15 Oeste 35 Noroeste 0 -- -- 24
2019-01-24 22:00:00 7.4 22 Noroeste 41 Noroeste 0 -- -- 31
2019-01-24 21:00:00 7.6 15 Noroeste 37 Noroeste 0 -- -- 27
2019-01-24 20:00:00 6.9 15 Noroeste 41 Noroeste 0 -- -- 33
2019-01-24 19:00:00 9 18 Noroeste 49 Noroeste 0 -- -- 26
2019-01-24 18:00:00 9.8 28 Norte 57 Noroeste 0 -- -- 23
2019-01-24 17:00:00 10.7 22 Noroeste 47 Noroeste 0 -- -- 22
2019-01-24 16:00:00 11.8 17 Noroeste 40 Noroeste 0 -- -- 22
2019-01-24 15:00:00 11.6 17 Norte 48 Norte 0 -- -- 27
2019-01-24 14:00:00 11.5 16 Norte 53 Noroeste 0 -- -- 27
2019-01-24 13:00:00 11.2 23 Norte 58 Noroeste 0 -- -- 26
2019-01-24 12:00:00 10.2 28 Norte 52 Norte 0 -- -- 27
2019-01-24 11:00:00 9.2 17 Norte 46 Norte 0 -- -- 32
2019-01-24 10:00:00 7.7 13 Norte 45 Norte 0 -- -- 36
2019-01-24 09:00:00 4.9 9 Noroeste 30 Noroeste 0 -- -- 46
2019-01-24 08:00:00 4.6 14 Noroeste 31 Norte 0 -- -- 47
2019-01-24 07:00:00 5.5 17 Noroeste 44 Oeste 0 -- -- 43
2019-01-24 06:00:00 5.1 21 Noroeste 51 Noroeste 0 -- -- 46
2019-01-24 05:00:00 4.3 19 Noroeste 48 Noroeste 0 -- -- 55
2019-01-24 04:00:00 5.2 15 Noroeste 41 Noroeste 0 -- -- 52
2019-01-24 03:00:00 5.3 18 Noroeste 36 Noroeste 0 -- -- 47
2019-01-24 02:00:00 4.5 11 Norte 25 Noroeste 0 -- -- 54
2019-01-24 01:00:00 4.9 12 Norte 29 Noroeste 0 -- -- 53
2019-01-24 00:00:00 4.7 13 Noroeste 19 Oeste 0 -- -- 55
2019-01-23 23:00:00 4.8 8 Norte 27 Noroeste 0 -- -- 62
2019-01-23 22:00:00 5 12 Norte 41 Norte 0 -- -- 62
2019-01-23 21:00:00 4.9 22 Norte 43 Noroeste 0 -- -- 70
2019-01-23 20:00:00 4.7 19 Norte 46 Norte 0 -- -- 76
2019-01-23 19:00:00 6.1 26 Norte 55 Norte 0 -- -- 67
2019-01-23 18:00:00 6 20 Norte 42 Norte 0 -- -- 72
2019-01-23 17:00:00 9.1 14 Noroeste 37 Noroeste 0 -- -- 72
2019-01-23 16:00:00 9.1 10 Noroeste 28 Noroeste 0 -- -- 70
2019-01-23 15:00:00 9.4 14 Noroeste 32 Noroeste 0 -- -- 65
2019-01-23 14:00:00 10.5 9 Norte 16 Norte 0 -- -- 54
2019-01-23 13:00:00 9.8 6 Oeste 21 Oeste 0 -- -- 55
2019-01-23 12:00:00 7.4 11 Oeste 23 Oeste 0 -- -- 66
2019-01-23 11:00:00 5 7 Oeste 19 Oeste 0 -- -- 76
2019-01-23 10:00:00 3.8 11 Oeste 16 Noroeste 0 -- -- 78
2019-01-23 09:00:00 2.1 5 Oeste 10 Oeste 0 -- -- 84
2019-01-23 08:00:00 1.9 6 Oeste 14 Noroeste 0 -- -- 82
2019-01-23 07:00:00 1.7 9 Oeste 17 Oeste 0 -- -- 82
2019-01-23 06:00:00 2.2 7 Sudoeste 13 Oeste 0 -- -- 79
2019-01-23 05:00:00 2.5 8 Oeste 14 Oeste 0 -- -- 79
2019-01-23 04:00:00 2.4 7 Sudoeste 15 Oeste 0 -- -- 80
2019-01-23 03:00:00 2.9 8 Oeste 14 Oeste 0 -- -- 78
2019-01-23 02:00:00 3 8 Sudoeste 19 Oeste 0 -- -- 79
2019-01-23 01:00:00 4 11 Oeste 23 Oeste 0 -- -- 75
2019-01-23 00:00:00 3.5 8 Oeste 14 Oeste 0 -- -- 78
2019-01-22 23:00:00 4.6 4 Noroeste 9 Oeste 0 -- -- 78
2019-01-22 22:00:00 4.9 3 Sudoeste 7 Oeste 0 -- -- 75
2019-01-22 21:00:00 5.1 4 Oeste 10 Oeste 0 -- -- 72
2019-01-22 20:00:00 5.6 4 Sudoeste 9 Oeste 0 -- -- 74
2019-01-22 19:00:00 6.8 4 Sur 13 Oeste 0 -- -- 70
2019-01-22 18:00:00 8.1 8 Oeste 14 Oeste 0 -- -- 62
2019-01-22 17:00:00 9.4 9 Oeste 15 Oeste 0 -- -- 50
2019-01-22 16:00:00 10.8 4 Sudoeste 19 Sur 0 -- -- 39
2019-01-22 15:00:00 11.8 9 Sudoeste 22 Sur 0 -- -- 41
2019-01-22 14:00:00 11.6 6 Sudoeste 15 Sur 0 -- -- 54
2019-01-22 13:00:00 11 5 Sudoeste 12 Sudoeste 0 -- -- 62
2019-01-22 12:00:00 9.8 5 Oeste 15 Oeste 0 -- -- 64
2019-01-22 11:00:00 6.4 8 Oeste 22 Oeste 0 -- -- 73
2019-01-22 10:00:00 3.2 10 Oeste 18 Oeste 0 -- -- 83
2019-01-22 09:00:00 -0.1 8 Oeste 19 Oeste 0 -- -- 91
2019-01-22 08:00:00 -0.2 7 Oeste 15 Oeste 0 -- -- 91
2019-01-22 07:00:00 0.2 9 Oeste 17 Oeste 0 -- -- 90
2019-01-22 06:00:00 1.2 8 Oeste 18 Oeste 0 -- -- 85
2019-01-22 05:00:00 2.1 9 Oeste 15 Oeste 0 -- -- 79
2019-01-22 04:00:00 3.1 7 Oeste 22 Oeste 0 -- -- 72
2019-01-22 03:00:00 5.6 9 Noroeste 33 Norte 0 -- -- 59
2019-01-22 02:00:00 5.9 14 Norte 35 Norte 0 -- -- 57
2019-01-22 01:00:00 6 18 Norte 39 Norte 0 -- -- 57
2019-01-22 00:00:00 6 15 Norte 41 Norte 0 -- -- 60
2019-01-21 23:00:00 6.2 17 Norte 39 Norte 0 -- -- 65
2019-01-21 22:00:00 6.7 17 Norte 38 Nordeste 0 -- -- 63
2019-01-21 21:00:00 7.3 19 Norte 39 Nordeste 0 -- -- 63
2019-01-21 20:00:00 7.5 17 Norte 38 Norte 0 -- -- 63
2019-01-21 19:00:00 7.6 14 Norte 33 Norte 0 -- -- 62
2019-01-21 18:00:00 8.6 11 Norte 27 Norte 0 -- -- 60
2019-01-21 17:00:00 10.2 12 Norte 26 Norte 0 -- -- 54
2019-01-21 16:00:00 11.3 13 Norte 27 Noroeste 0 -- -- 50
2019-01-21 15:00:00 11.4 12 Norte 27 Nordeste 0 -- -- 52
2019-01-21 14:00:00 10.6 13 Norte 33 Noroeste 0 -- -- 56
2019-01-21 13:00:00 10.8 14 Norte 28 Noroeste 0 -- -- 56
2019-01-21 12:00:00 10.4 7 Noroeste 19 Norte 0 -- -- 65
2019-01-21 11:00:00 9.6 9 Norte 19 Norte 0 -- -- 62
2019-01-21 10:00:00 8.1 9 Noroeste 26 Norte 0 -- -- 69
2019-01-21 09:00:00 7.4 12 Noroeste 21 Norte 0 -- -- 71
2019-01-21 08:00:00 7.2 11 Norte 33 Noroeste 0 -- -- 71
2019-01-21 07:00:00 7.4 18 Noroeste 32 Noroeste 0 -- -- 71
2019-01-21 06:00:00 7.4 9 Norte 29 Noroeste 0 -- -- 72
2019-01-21 05:00:00 7.6 11 Norte 24 Noroeste 0 -- -- 72
2019-01-21 04:00:00 7.6 10 Norte 30 Norte 0 -- -- 75
2019-01-21 03:00:00 7.9 13 Norte 30 Norte 0 -- -- 72
2019-01-21 02:00:00 7.7 8 Norte 22 Norte 0 -- -- 75
2019-01-21 01:00:00 7.8 10 Norte 22 Norte 0 -- -- 78
2019-01-21 00:00:00 7.8 10 Norte 20 Norte 0 -- -- 84
2019-01-20 23:00:00 8.6 9 Norte 21 Nordeste 0 -- -- 78
2019-01-20 22:00:00 8.9 10 Norte 23 Norte 0 -- -- 80
2019-01-20 21:00:00 9.2 8 Nordeste 33 Nordeste 0 -- -- 80
2019-01-20 20:00:00 9.3 14 Norte 39 Nordeste 0 -- -- 78
2019-01-20 19:00:00 9.2 15 Norte 36 Nordeste 0 -- -- 80
2019-01-20 18:00:00 9.2 14 Norte 32 Norte 0 -- -- 79
2019-01-20 17:00:00 9.2 11 Nordeste 27 Nordeste 0 -- -- 79
2019-01-20 16:00:00 9.2 12 Nordeste 30 Nordeste 0 -- -- 79
2019-01-20 15:00:00 9 6 Nordeste 18 Noroeste 0 -- -- 86
2019-01-20 14:00:00 8.9 4 Norte 21 Norte 0 -- -- 89
2019-01-20 13:00:00 8.6 7 Norte 15 Norte 0 -- -- 88
2019-01-20 12:00:00 8.7 5 Noroeste 13 Norte 0.4 -- -- 90
2019-01-20 11:00:00 8.1 4 Norte 10 Nordeste 1.4 -- -- 98
2019-01-20 10:00:00 7.2 3 Oeste 7 Oeste 0.6 -- -- 99
2019-01-20 09:00:00 7 4 Oeste 8 Oeste 1.2 -- -- 99
2019-01-20 08:00:00 6.8 4 Oeste 9 Oeste 1.8 -- -- 99
2019-01-20 07:00:00 6.7 4 Oeste 10 Oeste 0.4 -- -- 99
2019-01-20 06:00:00 6.5 6 Oeste 9 Oeste 0 -- -- 99
2019-01-20 05:00:00 6.2 6 Oeste 11 Oeste 0 -- -- 99
2019-01-20 04:00:00 5 3 Sudoeste 8 Oeste 0.4 -- -- 98
2019-01-20 03:00:00 4 5 Oeste 9 Oeste 0 -- -- 97
2019-01-20 02:00:00 3.6 2 Oeste 7 Oeste 0 -- -- 97
2019-01-20 01:00:00 2.9 5 Oeste 9 Oeste 0 -- -- 96
2019-01-20 00:00:00 2.7 4 Oeste 9 Oeste 0 -- -- 96
2019-01-19 23:00:00 3.3 7 Oeste 12 Oeste 0 -- -- 95
2019-01-19 22:00:00 4 6 Oeste 11 Oeste 0 -- -- 94
2019-01-19 21:00:00 4.7 6 Oeste 10 Sudoeste 0 -- -- 92
2019-01-19 20:00:00 5.6 5 Oeste 8 Oeste 0 -- -- 89
2019-01-19 19:00:00 7 4 Oeste 12 Sur 0 -- -- 85
2019-01-19 18:00:00 9.1 3 Sudoeste 13 Sur 0 -- -- 78
2019-01-19 17:00:00 10.7 4 Sudoeste 18 Sudoeste 0 -- -- 73
2019-01-19 16:00:00 12.2 8 Sudoeste 16 Sudoeste 0 -- -- 66
2019-01-19 15:00:00 12.2 9 Sudoeste 21 Sur 0 -- -- 66
2019-01-19 14:00:00 12.3 10 Sur 22 Sur 0 -- -- 64
2019-01-19 13:00:00 12.7 10 Sur 18 Sudoeste 0 -- -- 61
2019-01-19 12:00:00 10.8 5 Oeste 11 Sudoeste 0 -- -- 74
2019-01-19 11:00:00 8.1 6 Oeste 17 Oeste 0 -- -- 89
2019-01-19 10:00:00 4.8 8 Oeste 15 Oeste 0 -- -- 97
2019-01-19 09:00:00 2.2 8 Oeste 15 Oeste 0 -- -- 99
2019-01-19 08:00:00 2.1 7 Oeste 15 Oeste 0 -- -- 98
2019-01-19 07:00:00 2.8 6 Oeste 11 Oeste 0 -- -- 98
2019-01-19 06:00:00 3.5 5 Oeste 10 Sudoeste 0 -- -- 98
2019-01-19 05:00:00 4.1 5 Oeste 12 Oeste 0 -- -- 97
2019-01-19 04:00:00 5 4 Oeste 10 Oeste 0 -- -- 97
2019-01-19 03:00:00 5.3 6 Oeste 12 Oeste 0 -- -- 98
2019-01-19 02:00:00 5.2 5 Oeste 12 Oeste 0 -- -- 98
2019-01-19 01:00:00 4.7 6 Oeste 13 Oeste 1.2 -- -- 96
2019-01-19 00:00:00 4.4 5 Oeste 11 Oeste 0 -- -- 94